createdAt,value
2023-08-12T00:00:37.146Z,90.52
2023-08-12T00:01:37.169Z,90.52
2023-08-12T00:02:37.174Z,90.42
2023-08-12T00:03:37.154Z,90.12
2023-08-12T00:04:37.091Z,90.12
2023-08-12T00:05:37.071Z,90.32
2023-08-12T00:06:37.065Z,90.62
2023-08-12T00:07:37.049Z,90.42
2023-08-12T00:08:37.064Z,90.82
2023-08-12T00:09:37.027Z,90.62
2023-08-12T00:10:37.011Z,90.52
2023-08-12T00:11:37.044Z,90.56
2023-08-12T00:12:37.027Z,90.97
2023-08-12T00:13:36.989Z,90.66
2023-08-12T00:14:36.970Z,90.92
2023-08-12T00:15:36.961Z,90.52
2023-08-12T00:16:36.953Z,90.42
2023-08-12T00:17:36.975Z,90.52
2023-08-12T00:18:36.926Z,90.52
2023-08-12T00:19:36.971Z,90.42
2023-08-12T00:20:36.886Z,90.42
2023-08-12T00:21:36.867Z,90.32
2023-08-12T00:22:36.866Z,89.92
2023-08-12T00:23:36.842Z,90.42
2023-08-12T00:24:36.832Z,90.12
2023-08-12T00:25:36.825Z,89.92
2023-08-12T00:26:36.814Z,89.72
2023-08-12T00:27:36.800Z,89.51
2023-08-12T00:28:36.805Z,89.58
2023-08-12T00:29:36.764Z,89.58
2023-08-12T00:30:36.770Z,89.47
2023-08-12T00:31:36.794Z,89.82
2023-08-12T00:32:36.779Z,89.58
2023-08-12T00:33:36.710Z,89.42
2023-08-12T00:34:36.698Z,89.58
2023-08-12T00:35:36.678Z,89.27
2023-08-12T00:36:36.744Z,89.37
2023-08-12T00:37:36.653Z,89.27
2023-08-12T00:38:36.643Z,89.67
2023-08-12T00:39:36.625Z,89.47
2023-08-12T00:40:36.631Z,88.87
2023-08-12T00:41:36.610Z,88.67
2023-08-12T00:42:36.590Z,89.07
2023-08-12T00:43:36.573Z,89.07
2023-08-12T00:44:36.570Z,88.87
2023-08-12T00:45:36.557Z,88.87
2023-08-12T00:46:36.575Z,89.07
2023-08-12T00:47:36.535Z,88.57
2023-08-12T00:48:36.512Z,88.67
2023-08-12T00:49:36.498Z,88.67
2023-08-12T00:50:36.495Z,89.07
2023-08-12T00:51:36.470Z,88.57
2023-08-12T00:52:36.461Z,88.67
2023-08-12T00:53:36.440Z,89.07
2023-08-12T00:54:36.445Z,88.77
2023-08-12T00:55:36.440Z,88.87
2023-08-12T00:56:36.412Z,88.77
2023-08-12T00:57:36.407Z,88.97
2023-08-12T00:58:36.382Z,88.87
2023-08-12T00:59:36.381Z,88.97
2023-08-12T01:00:36.435Z,89.07
2023-08-12T01:01:36.338Z,89.07
2023-08-12T01:02:36.489Z,88.67
2023-08-12T01:03:36.380Z,88.67
2023-08-12T01:04:36.312Z,88.37
2023-08-12T01:05:38.516Z,88.27
2023-08-12T01:06:36.278Z,88.37
2023-08-12T01:07:36.265Z,88.57
2023-08-12T01:08:36.275Z,88.57
2023-08-12T01:09:36.246Z,88.37
2023-08-12T01:10:36.232Z,88.27
2023-08-12T01:11:36.214Z,88.77
2023-08-12T01:12:36.197Z,88.67
2023-08-12T01:13:36.194Z,88.67
2023-08-12T01:14:36.175Z,88.87
2023-08-12T01:15:36.155Z,88.97
2023-08-12T01:16:36.209Z,88.87
2023-08-12T01:17:36.174Z,88.97
2023-08-12T01:18:36.179Z,89.37
2023-08-12T01:19:36.109Z,89.58
2023-08-12T01:20:36.103Z,89.58
2023-08-12T01:21:36.128Z,89.62
2023-08-12T01:22:36.085Z,89.62
2023-08-12T01:23:36.080Z,89.62
2023-08-12T01:24:36.084Z,89.31
2023-08-12T01:25:36.027Z,89.72
2023-08-12T01:26:36.017Z,90.22
2023-08-12T01:27:36.006Z,90.22
2023-08-12T01:28:35.993Z,90.12
2023-08-12T01:29:35.976Z,90.32
2023-08-12T01:30:35.999Z,90.52
2023-08-12T01:31:35.946Z,90.62
2023-08-12T01:32:36.015Z,90.66
2023-08-12T01:33:35.925Z,90.56
2023-08-12T01:34:35.914Z,91.06
2023-08-12T01:35:35.895Z,90.77
2023-08-12T01:36:35.896Z,91.06
2023-08-12T01:37:35.888Z,91.67
2023-08-12T01:38:35.855Z,91.47
2023-08-12T01:39:35.845Z,91.06
2023-08-12T01:40:35.834Z,91.47
2023-08-12T01:41:35.824Z,91.47
2023-08-12T01:42:35.805Z,91.57
2023-08-12T01:43:35.793Z,91.37
2023-08-12T01:44:35.782Z,91.57
2023-08-12T01:45:35.766Z,91.91
2023-08-12T01:46:35.796Z,92.02
2023-08-12T01:47:35.815Z,92.52
2023-08-12T01:48:35.726Z,92.82
2023-08-12T01:49:35.708Z,92.52
2023-08-12T01:50:35.717Z,92.82
2023-08-12T01:51:35.695Z,93.02
2023-08-12T01:52:35.700Z,93.42
2023-08-12T01:53:35.660Z,93.32
2023-08-12T01:54:35.701Z,93.73
2023-08-12T01:55:35.641Z,93.87
2023-08-12T01:56:35.630Z,93.97
2023-08-12T01:57:35.606Z,94.07
2023-08-12T01:58:35.642Z,94.17
2023-08-12T01:59:35.594Z,94.17
2023-08-12T02:00:35.577Z,94.07
2023-08-12T02:01:35.559Z,94.67
2023-08-12T02:02:35.626Z,95.42
2023-08-12T02:03:35.665Z,95.22
2023-08-12T02:04:35.537Z,95.42
2023-08-12T02:05:35.508Z,95.02
2023-08-12T02:06:35.493Z,94.92
2023-08-12T02:07:35.473Z,94.82
2023-08-12T02:08:35.570Z,94.72
2023-08-12T02:09:35.460Z,95.02
2023-08-12T02:10:35.439Z,95.73
2023-08-12T02:11:35.425Z,95.83
2023-08-12T02:12:35.419Z,95.73
2023-08-12T02:13:35.455Z,95.32
2023-08-12T02:14:35.397Z,95.22
2023-08-12T02:15:35.377Z,95.42
2023-08-12T02:16:35.383Z,95.53
2023-08-12T02:17:35.390Z,95.53
2023-08-12T02:18:35.348Z,95.53
2023-08-12T02:19:35.353Z,95.62
2023-08-12T02:20:35.302Z,95.53
2023-08-12T02:21:35.299Z,95.42
2023-08-12T02:22:35.281Z,95.53
2023-08-12T02:23:35.276Z,95.62
2023-08-12T02:24:35.252Z,95.53
2023-08-12T02:25:35.245Z,95.97
2023-08-12T02:26:35.224Z,95.97
2023-08-12T02:27:35.247Z,96.08
2023-08-12T02:28:35.214Z,96.08
2023-08-12T02:29:35.194Z,95.77
2023-08-12T02:30:35.172Z,95.77
2023-08-12T02:31:35.215Z,95.87
2023-08-12T02:32:35.182Z,96.37
2023-08-12T02:33:35.136Z,96.48
2023-08-12T02:34:35.117Z,96.68
2023-08-12T02:35:35.109Z,96.68
2023-08-12T02:36:35.088Z,96.78
2023-08-12T02:37:35.110Z,96.78
2023-08-12T02:38:35.070Z,97.08
2023-08-12T02:39:35.060Z,97.08
2023-08-12T02:40:35.053Z,97.38
2023-08-12T02:41:35.051Z,97.58
2023-08-12T02:42:35.031Z,97.49
2023-08-12T02:43:35.015Z,97.38
2023-08-12T02:44:34.993Z,97.38
2023-08-12T02:45:34.985Z,97.18
2023-08-12T02:46:34.973Z,96.98
2023-08-12T02:47:34.994Z,96.98
2023-08-12T02:48:34.942Z,96.98
2023-08-12T02:49:34.928Z,97.08
2023-08-12T02:50:34.917Z,97.18
2023-08-12T02:51:34.919Z,97.58
2023-08-12T02:52:34.900Z,97.38
2023-08-12T02:53:34.872Z,97.18
2023-08-12T02:54:34.870Z,97.18
2023-08-12T02:55:34.862Z,97.18
2023-08-12T02:56:34.833Z,97.08
2023-08-12T02:57:34.819Z,96.88
2023-08-12T02:58:34.868Z,96.58
2023-08-12T02:59:34.796Z,96.98
2023-08-12T03:00:34.796Z,96.68
2023-08-12T03:01:34.829Z,96.37
2023-08-12T03:02:34.798Z,96.58
2023-08-12T03:03:34.816Z,96.28
2023-08-12T03:04:34.735Z,96.28
2023-08-12T03:05:34.740Z,96.68
2023-08-12T03:06:34.697Z,96.68
2023-08-12T03:07:34.700Z,96.37
2023-08-12T03:08:34.683Z,96.37
2023-08-12T03:09:34.694Z,96.08
2023-08-12T03:10:34.646Z,96.28
2023-08-12T03:11:34.640Z,95.93
2023-08-12T03:12:34.637Z,96.03
2023-08-12T03:13:34.621Z,96.03
2023-08-12T03:14:34.609Z,96.43
2023-08-12T03:15:34.593Z,96.33
2023-08-12T03:16:34.572Z,96.13
2023-08-12T03:17:34.589Z,95.73
2023-08-12T03:18:34.548Z,95.62
2023-08-12T03:19:34.569Z,95.32
2023-08-12T03:20:34.518Z,95.53
2023-08-12T03:21:34.510Z,95.42
2023-08-12T03:22:34.488Z,95.32
2023-08-12T03:23:34.499Z,95.22
2023-08-12T03:24:34.463Z,95.02
2023-08-12T03:25:34.449Z,94.87
2023-08-12T03:26:34.438Z,94.67
2023-08-12T03:27:34.430Z,94.67
2023-08-12T03:28:34.421Z,94.57
2023-08-12T03:29:34.398Z,94.37
2023-08-12T03:30:34.386Z,94.27
2023-08-12T03:31:34.399Z,94.27
2023-08-12T03:32:34.396Z,94.17
2023-08-12T03:33:34.361Z,93.97
2023-08-12T03:34:34.326Z,94.27
2023-08-12T03:35:34.349Z,94.37
2023-08-12T03:36:34.309Z,94.17
2023-08-12T03:37:34.352Z,94.37
2023-08-12T03:38:34.285Z,94.07
2023-08-12T03:39:34.273Z,94.17
2023-08-12T03:40:34.258Z,94.67
2023-08-12T03:41:34.256Z,94.57
2023-08-12T03:42:34.238Z,94.87
2023-08-12T03:43:34.225Z,94.87
2023-08-12T03:44:34.198Z,94.67
2023-08-12T03:45:34.192Z,94.67
2023-08-12T03:46:34.344Z,94.87
2023-08-12T03:47:34.240Z,94.78
2023-08-12T03:48:34.150Z,94.63
2023-08-12T03:49:34.177Z,95.33
2023-08-12T03:50:34.120Z,94.73
2023-08-12T03:51:34.120Z,94.73
2023-08-12T03:52:34.097Z,94.93
2023-08-12T03:53:34.090Z,94.93
2023-08-12T03:54:34.067Z,95.13
2023-08-12T03:55:34.062Z,95.03
2023-08-12T03:56:34.050Z,95.03
2023-08-12T03:57:34.026Z,95.03
2023-08-12T03:58:34.028Z,95.53
2023-08-12T03:59:34.010Z,95.94
2023-08-12T04:00:34.128Z,95.73
2023-08-12T04:01:33.985Z,95.73
2023-08-12T04:02:34.003Z,95.98
2023-08-12T04:03:33.998Z,95.58
2023-08-12T04:04:33.941Z,95.88
2023-08-12T04:05:33.942Z,96.08
2023-08-12T04:06:33.906Z,95.98
2023-08-12T04:07:33.901Z,96.19
2023-08-12T04:08:33.884Z,96.48
2023-08-12T04:09:33.888Z,96.59
2023-08-12T04:10:33.876Z,96.48
2023-08-12T04:11:33.851Z,96.39
2023-08-12T04:12:33.836Z,96.48
2023-08-12T04:13:33.825Z,96.78
2023-08-12T04:14:33.812Z,96.69
2023-08-12T04:15:33.807Z,96.78
2023-08-12T04:16:33.871Z,97.59
2023-08-12T04:17:33.809Z,97.29
2023-08-12T04:18:33.760Z,96.19
2023-08-12T04:19:33.772Z,95.58
2023-08-12T04:20:33.741Z,95.43
2023-08-12T04:21:33.720Z,95.33
2023-08-12T04:22:33.706Z,95.03
2023-08-12T04:23:33.718Z,94.73
2023-08-12T04:24:33.681Z,94.13
2023-08-12T04:25:33.665Z,94.13
2023-08-12T04:26:33.647Z,93.68
2023-08-12T04:27:33.637Z,93.58
2023-08-12T04:28:33.642Z,93.18
2023-08-12T04:29:33.621Z,93.08
2023-08-12T04:30:33.610Z,91.67
2023-08-12T04:31:33.637Z,91.63
2023-08-12T04:32:33.594Z,91.32
2023-08-12T04:33:33.568Z,90.52
2023-08-12T04:34:33.538Z,90.52
2023-08-12T04:35:33.535Z,90.32
2023-08-12T04:36:33.528Z,89.27
2023-08-12T04:37:33.532Z,89.58
2023-08-12T04:38:33.499Z,89.58
2023-08-12T04:39:33.519Z,89.67
2023-08-12T04:40:33.486Z,90.17
2023-08-12T04:41:33.466Z,89.47
2023-08-12T04:42:33.459Z,89.27
2023-08-12T04:43:33.480Z,89.07
2023-08-12T04:44:33.409Z,88.97
2023-08-12T04:45:33.414Z,89.33
2023-08-12T04:46:33.448Z,89.23
2023-08-12T04:47:33.427Z,89.43
2023-08-12T04:48:33.364Z,89.73
2023-08-12T04:49:33.351Z,88.63
2023-08-12T04:50:33.330Z,88.93
2023-08-12T04:51:33.321Z,88.23
2023-08-12T04:52:33.318Z,87.88
2023-08-12T04:53:33.305Z,88.68
2023-08-12T04:54:33.279Z,88.59
2023-08-12T04:55:33.291Z,88.89
2023-08-12T04:56:33.272Z,89.18
2023-08-12T04:57:33.255Z,88.48
2023-08-12T04:58:33.241Z,88.68
2023-08-12T04:59:33.221Z,88.59
2023-08-12T05:00:33.205Z,88.68
2023-08-12T05:01:33.219Z,88.53
2023-08-12T05:02:33.328Z,88.83
2023-08-12T05:03:33.174Z,88.93
2023-08-12T05:04:33.212Z,88.93
2023-08-12T05:05:33.154Z,88.83
2023-08-12T05:06:33.134Z,88.53
2023-08-12T05:07:33.119Z,89.03
2023-08-12T05:08:33.101Z,88.93
2023-08-12T05:09:33.100Z,89.23
2023-08-12T05:10:33.087Z,89.33
2023-08-12T05:11:33.060Z,88.73
2023-08-12T05:12:33.043Z,89.13
2023-08-12T05:13:33.048Z,89.23
2023-08-12T05:14:33.027Z,89.33
2023-08-12T05:15:33.036Z,90.44
2023-08-12T05:16:33.083Z,89.73
2023-08-12T05:17:33.049Z,90.53
2023-08-12T05:18:32.977Z,90.84
2023-08-12T05:19:32.969Z,91.24
2023-08-12T05:20:32.960Z,92.14
2023-08-12T05:21:32.933Z,91.64
2023-08-12T05:22:32.929Z,92.74
2023-08-12T05:23:32.908Z,92.84
2023-08-12T05:24:32.912Z,94.05
2023-08-12T05:25:32.873Z,95.00
2023-08-12T05:26:32.866Z,95.30
2023-08-12T05:27:32.853Z,95.70
2023-08-12T05:28:32.834Z,96.50
2023-08-12T05:29:32.835Z,96.30
2023-08-12T05:30:32.807Z,96.41
2023-08-12T05:31:32.811Z,96.70
2023-08-12T05:32:32.831Z,96.45
2023-08-12T05:33:32.821Z,96.45
2023-08-12T05:34:32.764Z,96.65
2023-08-12T05:35:32.741Z,96.85
2023-08-12T05:36:32.733Z,97.15
2023-08-12T05:37:32.745Z,97.45
2023-08-12T05:38:32.715Z,97.96
2023-08-12T05:39:32.689Z,98.56
2023-08-12T05:40:32.682Z,98.91
2023-08-12T05:41:32.662Z,99.51
2023-08-12T05:42:32.656Z,99.99
2023-08-12T05:43:32.675Z,99.99
2023-08-12T05:44:32.644Z,99.99
2023-08-12T05:45:32.695Z,99.99
2023-08-12T05:46:32.617Z,99.99
2023-08-12T05:47:41.388Z,99.99
2023-08-12T05:48:41.123Z,99.99
2023-08-12T05:49:40.086Z,99.99
2023-08-12T05:50:40.052Z,99.99
2023-08-12T05:51:40.046Z,99.99
2023-08-12T05:52:41.339Z,99.99
2023-08-12T05:53:40.017Z,99.99
2023-08-12T05:54:39.989Z,99.99
2023-08-12T05:55:32.482Z,99.99
2023-08-12T05:56:32.475Z,99.99
2023-08-12T05:57:32.474Z,99.99
2023-08-12T05:58:32.449Z,99.99
2023-08-12T05:59:32.440Z,99.99
2023-08-12T06:00:32.415Z,99.99
2023-08-12T06:01:32.480Z,99.99
2023-08-12T06:02:32.417Z,99.99
2023-08-12T06:03:32.414Z,99.99
2023-08-12T06:04:32.369Z,99.99
2023-08-12T06:05:32.352Z,99.99
2023-08-12T06:06:32.353Z,99.99
2023-08-12T06:07:32.328Z,99.99
2023-08-12T06:08:32.322Z,99.99
2023-08-12T06:09:32.299Z,99.99
2023-08-12T06:10:32.312Z,99.99
2023-08-12T06:11:32.277Z,99.99
2023-08-12T06:12:32.258Z,99.99
2023-08-12T06:13:32.254Z,99.99
2023-08-12T06:14:32.231Z,99.99
2023-08-12T06:15:32.239Z,99.99
2023-08-12T06:16:32.230Z,99.99
2023-08-12T06:17:32.251Z,99.99
2023-08-12T06:18:32.186Z,99.99
2023-08-12T06:19:32.170Z,99.99
2023-08-12T06:20:32.173Z,99.98
2023-08-12T06:21:32.135Z,99.99
2023-08-12T06:22:32.132Z,99.99
2023-08-12T06:23:32.112Z,99.99
2023-08-12T06:24:32.141Z,99.99
2023-08-12T06:25:32.097Z,99.99
2023-08-12T06:26:32.135Z,99.99
2023-08-12T06:27:32.061Z,99.99
2023-08-12T06:28:32.051Z,99.99
2023-08-12T06:29:32.059Z,99.99
2023-08-12T06:30:32.028Z,99.99
2023-08-12T06:31:32.088Z,99.99
2023-08-12T06:32:32.018Z,99.99
2023-08-12T06:33:32.004Z,99.99
2023-08-12T06:34:31.983Z,99.99
2023-08-12T06:35:31.960Z,99.63
2023-08-12T06:36:31.956Z,99.99
2023-08-12T06:37:31.932Z,99.99
2023-08-12T06:38:31.936Z,99.99
2023-08-12T06:39:31.920Z,99.99
2023-08-12T06:40:31.942Z,99.88
2023-08-12T06:41:31.898Z,99.38
2023-08-12T06:42:31.965Z,99.99
2023-08-12T06:43:31.871Z,99.99
2023-08-12T06:44:31.879Z,99.99
2023-08-12T06:45:31.876Z,99.99
2023-08-12T06:46:31.865Z,99.99
2023-08-12T06:47:31.896Z,99.99
2023-08-12T06:48:31.827Z,99.99
2023-08-12T06:49:31.794Z,99.99
2023-08-12T06:50:31.838Z,99.99
2023-08-12T06:51:31.785Z,99.99
2023-08-12T06:52:31.798Z,99.99
2023-08-12T06:53:31.768Z,99.99
2023-08-12T06:54:31.741Z,99.99
2023-08-12T06:55:31.727Z,99.99
2023-08-12T06:56:31.725Z,99.99
2023-08-12T06:57:31.715Z,99.99
2023-08-12T06:58:31.663Z,99.99
2023-08-12T06:59:31.666Z,99.99
2023-08-12T07:00:31.646Z,99.99
2023-08-12T07:01:31.707Z,99.83
2023-08-12T07:02:31.654Z,99.63
2023-08-12T07:03:31.650Z,99.52
2023-08-12T07:04:31.591Z,99.73
2023-08-12T07:05:31.584Z,99.99
2023-08-12T07:06:31.578Z,99.73
2023-08-12T07:07:31.548Z,99.93
2023-08-12T07:08:31.541Z,99.99
2023-08-12T07:09:31.574Z,99.99
2023-08-12T07:10:31.522Z,99.98
2023-08-12T07:11:31.532Z,98.28
2023-08-12T07:12:31.492Z,98.63
2023-08-12T07:13:31.473Z,99.18
2023-08-12T07:14:31.563Z,99.88
2023-08-12T07:15:31.460Z,98.98
2023-08-12T07:16:31.449Z,98.98
2023-08-12T07:17:31.465Z,99.33
2023-08-12T07:18:31.409Z,99.23
2023-08-12T07:19:31.413Z,98.73
2023-08-12T07:20:31.400Z,98.33
2023-08-12T07:21:31.402Z,98.23
2023-08-12T07:22:31.356Z,98.43
2023-08-12T07:23:31.346Z,97.73
2023-08-12T07:24:31.350Z,97.78
2023-08-12T07:25:31.335Z,97.58
2023-08-12T07:26:31.329Z,97.58
2023-08-12T07:27:31.292Z,97.53
2023-08-12T07:28:31.280Z,97.49
2023-08-12T07:29:31.281Z,96.63
2023-08-12T07:30:31.297Z,97.03
2023-08-12T07:31:31.369Z,96.83
2023-08-12T07:32:31.268Z,97.73
2023-08-12T07:33:31.209Z,97.13
2023-08-12T07:34:31.904Z,97.33
2023-08-12T07:35:31.183Z,97.13
2023-08-12T07:36:31.178Z,97.33
2023-08-12T07:37:31.169Z,96.33
2023-08-12T07:38:31.171Z,96.63
2023-08-12T07:39:31.141Z,96.83
2023-08-12T07:40:31.135Z,97.23
2023-08-12T07:41:31.112Z,96.73
2023-08-12T07:42:31.086Z,97.13
2023-08-12T07:43:31.091Z,97.73
2023-08-12T07:44:31.077Z,97.83
2023-08-12T07:45:31.066Z,97.73
2023-08-12T07:46:31.123Z,97.63
2023-08-12T07:47:31.028Z,97.73
2023-08-12T07:48:31.022Z,98.53
2023-08-12T07:49:31.001Z,98.63
2023-08-12T07:50:31.047Z,99.53
2023-08-12T07:51:30.962Z,97.73
2023-08-12T07:52:30.976Z,97.83
2023-08-12T07:53:30.956Z,97.97
2023-08-12T07:54:30.939Z,98.68
2023-08-12T07:55:30.925Z,98.48
2023-08-12T07:56:30.962Z,98.13
2023-08-12T07:57:30.901Z,99.23
2023-08-12T07:58:30.897Z,98.73
2023-08-12T07:59:30.923Z,98.83
2023-08-12T08:00:30.871Z,97.93
2023-08-12T08:01:30.860Z,98.33
2023-08-12T08:02:30.862Z,98.33
2023-08-12T08:03:30.811Z,98.28
2023-08-12T08:04:30.814Z,97.99
2023-08-12T08:05:30.918Z,97.88
2023-08-12T08:06:30.786Z,98.08
2023-08-12T08:07:30.777Z,96.68
2023-08-12T08:08:30.761Z,97.08
2023-08-12T08:09:30.764Z,96.88
2023-08-12T08:10:30.776Z,97.18
2023-08-12T08:11:30.719Z,97.28
2023-08-12T08:12:30.756Z,97.38
2023-08-12T08:13:30.692Z,97.58
2023-08-12T08:14:30.679Z,97.99
2023-08-12T08:15:30.664Z,98.28
2023-08-12T08:16:30.744Z,97.99
2023-08-12T08:17:30.860Z,97.49
2023-08-12T08:18:30.674Z,97.88
2023-08-12T08:19:30.604Z,98.08
2023-08-12T08:20:30.615Z,97.78
2023-08-12T08:21:30.733Z,97.68
2023-08-12T08:22:32.771Z,97.78
2023-08-12T08:23:30.546Z,97.58
2023-08-12T08:24:30.561Z,97.88
2023-08-12T08:25:30.540Z,98.18
2023-08-12T08:26:30.528Z,98.08
2023-08-12T08:27:30.499Z,96.48
2023-08-12T08:28:30.490Z,96.98
2023-08-12T08:29:30.485Z,98.18
2023-08-12T08:30:30.525Z,96.98
2023-08-12T08:31:30.506Z,95.54
2023-08-12T08:32:30.482Z,96.34
2023-08-12T08:33:30.415Z,97.44
2023-08-12T08:34:30.428Z,96.29
2023-08-12T08:35:30.516Z,95.09
2023-08-12T08:36:30.392Z,94.79
2023-08-12T08:37:30.393Z,95.64
2023-08-12T08:38:30.370Z,95.25
2023-08-12T08:39:30.346Z,94.54
2023-08-12T08:40:30.326Z,94.30
2023-08-12T08:41:30.315Z,93.80
2023-08-12T08:42:30.308Z,93.80
2023-08-12T08:43:30.288Z,92.80
2023-08-12T08:44:30.285Z,93.00
2023-08-12T08:45:30.262Z,93.90
2023-08-12T08:46:30.262Z,93.00
2023-08-12T08:47:30.269Z,93.65
2023-08-12T08:48:30.246Z,93.90
2023-08-12T08:49:30.226Z,94.40
2023-08-12T08:50:30.218Z,93.65
2023-08-12T08:51:30.189Z,94.24
2023-08-12T08:52:30.170Z,93.85
2023-08-12T08:53:30.847Z,93.24
2023-08-12T08:54:30.147Z,94.04
2023-08-12T08:55:30.276Z,93.80
2023-08-12T08:56:30.119Z,92.80
2023-08-12T08:57:39.939Z,93.70
2023-08-12T08:58:31.110Z,93.50
2023-08-12T08:59:30.077Z,94.20
2023-08-12T09:00:30.085Z,93.50
2023-08-12T09:01:30.085Z,93.50
2023-08-12T09:02:30.110Z,94.60
2023-08-12T09:03:30.025Z,93.95
2023-08-12T09:04:30.023Z,94.15
2023-08-12T09:05:30.057Z,93.65
2023-08-12T09:06:29.999Z,94.59
2023-08-12T09:07:29.981Z,94.79
2023-08-12T09:08:29.965Z,94.59
2023-08-12T09:09:30.013Z,95.19
2023-08-12T09:10:30.138Z,96.09
2023-08-12T09:11:29.938Z,96.39
2023-08-12T09:12:29.945Z,94.69
2023-08-12T09:13:29.902Z,94.49
2023-08-12T09:14:29.901Z,92.79
2023-08-12T09:15:29.884Z,93.39
2023-08-12T09:16:29.954Z,93.99
2023-08-12T09:17:29.891Z,94.09
2023-08-12T09:18:29.836Z,93.49
2023-08-12T09:19:29.814Z,92.99
2023-08-12T09:20:29.836Z,93.79
2023-08-12T09:21:29.805Z,94.13
2023-08-12T09:22:29.783Z,94.79
2023-08-12T09:23:29.796Z,94.39
2023-08-12T09:24:29.758Z,94.39
2023-08-12T09:25:29.758Z,94.69
2023-08-12T09:26:29.739Z,94.79
2023-08-12T09:27:29.722Z,94.29
2023-08-12T09:28:29.701Z,94.39
2023-08-12T09:29:29.680Z,94.09
2023-08-12T09:30:29.692Z,94.95
2023-08-12T09:31:29.755Z,94.95
2023-08-12T09:32:29.695Z,93.05
2023-08-12T09:33:29.637Z,93.74
2023-08-12T09:34:29.624Z,95.54
2023-08-12T09:35:29.636Z,95.75
2023-08-12T09:36:29.609Z,95.75
2023-08-12T09:37:29.581Z,94.45
2023-08-12T09:38:29.594Z,94.15
2023-08-12T09:39:29.561Z,93.35
2023-08-12T09:40:29.567Z,93.24
2023-08-12T09:41:29.529Z,94.84
2023-08-12T09:42:29.583Z,95.25
2023-08-12T09:43:29.503Z,93.35
2023-08-12T09:44:29.499Z,93.44
2023-08-12T09:45:29.493Z,92.35
2023-08-12T09:46:29.468Z,93.15
2023-08-12T09:47:29.459Z,94.24
2023-08-12T09:48:29.456Z,94.20
2023-08-12T09:49:29.429Z,93.90
2023-08-12T09:50:29.430Z,94.24
2023-08-12T09:51:29.400Z,94.54
2023-08-12T09:52:29.388Z,94.04
2023-08-12T09:53:31.838Z,94.45
2023-08-12T09:54:29.376Z,94.15
2023-08-12T09:55:29.362Z,94.35
2023-08-12T09:56:29.339Z,94.45
2023-08-12T09:57:29.392Z,94.24
2023-08-12T09:58:29.316Z,94.95
2023-08-12T09:59:29.297Z,95.04
2023-08-12T10:00:29.284Z,95.75
2023-08-12T10:01:29.294Z,94.95
2023-08-12T10:02:29.277Z,95.34
2023-08-12T10:03:29.281Z,94.84
2023-08-12T10:04:29.222Z,94.54
2023-08-12T10:05:29.244Z,95.04
2023-08-12T10:06:29.199Z,94.84
2023-08-12T10:07:29.181Z,95.15
2023-08-12T10:08:29.183Z,95.00
2023-08-12T10:09:29.154Z,95.10
2023-08-12T10:10:29.144Z,94.45
2023-08-12T10:11:29.135Z,94.95
2023-08-12T10:12:29.127Z,94.51
2023-08-12T10:13:29.113Z,94.61
2023-08-12T10:14:29.097Z,93.52
2023-08-12T10:15:29.111Z,93.38
2023-08-12T10:16:29.071Z,90.99
2023-08-12T10:17:42.734Z,89.89
2023-08-12T10:18:30.076Z,90.94
2023-08-12T10:19:29.022Z,90.25
2023-08-12T10:20:29.030Z,90.44
2023-08-12T10:21:29.008Z,88.85
2023-08-12T10:22:28.999Z,89.80
2023-08-12T10:23:28.985Z,88.45
2023-08-12T10:24:28.978Z,88.65
2023-08-12T10:25:28.943Z,88.51
2023-08-12T10:26:28.945Z,89.96
2023-08-12T10:27:28.917Z,87.87
2023-08-12T10:28:28.906Z,87.87
2023-08-12T10:29:28.945Z,86.42
2023-08-12T10:30:28.894Z,86.52
2023-08-12T10:31:28.910Z,86.12
2023-08-12T10:32:28.874Z,86.72
2023-08-12T10:33:28.852Z,86.42
2023-08-12T10:34:28.828Z,86.47
2023-08-12T10:35:28.836Z,87.87
2023-08-12T10:36:28.878Z,85.88
2023-08-12T10:37:28.854Z,85.78
2023-08-12T10:38:28.780Z,85.54
2023-08-12T10:39:28.794Z,86.55
2023-08-12T10:40:28.768Z,83.23
2023-08-12T10:41:28.752Z,82.06
2023-08-12T10:42:28.727Z,80.63
2023-08-12T10:43:28.722Z,80.99
2023-08-12T10:44:28.704Z,78.97
2023-08-12T10:45:28.698Z,79.03
2023-08-12T10:46:28.695Z,76.29
2023-08-12T10:47:28.746Z,77.28
2023-08-12T10:48:28.697Z,79.90
2023-08-12T10:49:28.655Z,80.55
2023-08-12T10:50:28.666Z,76.49
2023-08-12T10:51:28.615Z,77.45
2023-08-12T10:52:28.630Z,76.56
2023-08-12T10:53:28.591Z,77.84
2023-08-12T10:54:28.594Z,77.25
2023-08-12T10:55:28.566Z,77.15
2023-08-12T10:56:28.585Z,77.58
2023-08-12T10:57:28.539Z,76.63
2023-08-12T10:58:28.524Z,76.86
2023-08-12T10:59:28.540Z,79.24
2023-08-12T11:00:28.509Z,79.05
2023-08-12T11:01:28.549Z,78.19
2023-08-12T11:02:28.507Z,79.97
2023-08-12T11:03:28.517Z,79.18
2023-08-12T11:04:28.465Z,79.58
2023-08-12T11:05:28.434Z,79.68
2023-08-12T11:06:28.414Z,80.27
2023-08-12T11:07:28.421Z,78.59
2023-08-12T11:08:28.427Z,77.20
2023-08-12T11:09:28.420Z,78.29
2023-08-12T11:10:29.185Z,80.18
2023-08-12T11:11:28.373Z,79.88
2023-08-12T11:12:28.354Z,78.09
2023-08-12T11:13:28.349Z,77.69
2023-08-12T11:14:28.313Z,79.54
2023-08-12T11:15:28.307Z,79.24
2023-08-12T11:16:28.334Z,78.95
2023-08-12T11:17:28.304Z,79.64
2023-08-12T11:18:28.256Z,80.14
2023-08-12T11:19:28.269Z,79.35
2023-08-12T11:20:28.253Z,81.09
2023-08-12T11:21:28.246Z,78.51
2023-08-12T11:22:28.216Z,78.51
2023-08-12T11:23:28.207Z,78.31
2023-08-12T11:24:28.187Z,79.01
2023-08-12T11:25:28.169Z,79.70
2023-08-12T11:26:28.187Z,79.36
2023-08-12T11:27:28.168Z,79.39
2023-08-12T11:28:28.142Z,76.48
2023-08-12T11:29:28.118Z,74.76
2023-08-12T11:30:31.072Z,75.42
2023-08-12T11:31:28.109Z,74.59
2023-08-12T11:32:28.090Z,74.10
2023-08-12T11:33:28.076Z,73.50
2023-08-12T11:34:28.058Z,72.91
2023-08-12T11:35:28.046Z,75.35
2023-08-12T11:36:28.037Z,73.04
2023-08-12T11:37:28.036Z,73.77
2023-08-12T11:38:28.004Z,72.25
2023-08-12T11:39:27.987Z,74.32
2023-08-12T11:40:27.998Z,73.14
2023-08-12T11:41:27.979Z,73.04
2023-08-12T11:42:27.985Z,71.86
2023-08-12T11:43:27.935Z,72.34
2023-08-12T11:44:27.952Z,72.94
2023-08-12T11:45:27.950Z,75.51
2023-08-12T11:46:28.248Z,73.57
2023-08-12T11:47:27.892Z,73.11
2023-08-12T11:48:27.869Z,73.24
2023-08-12T11:49:27.868Z,76.74
2023-08-12T11:50:27.869Z,75.16
2023-08-12T11:51:27.854Z,75.75
2023-08-12T11:52:27.834Z,75.45
2023-08-12T11:53:27.815Z,76.80
2023-08-12T11:54:29.722Z,77.36
2023-08-12T11:55:27.818Z,73.67
2023-08-12T11:56:27.768Z,72.97
2023-08-12T11:57:27.795Z,72.68
2023-08-12T11:58:36.742Z,74.26
2023-08-12T11:59:28.759Z,73.54
2023-08-12T12:00:27.746Z,73.24
2023-08-12T12:01:27.749Z,72.02
2023-08-12T12:02:27.792Z,74.98
2023-08-12T12:03:27.709Z,74.09
2023-08-12T12:04:27.708Z,71.62
2023-08-12T12:05:27.657Z,71.92
2023-08-12T12:06:27.703Z,69.06
2023-08-12T12:07:27.640Z,70.64
2023-08-12T12:08:27.642Z,74.38
2023-08-12T12:09:27.627Z,71.39
2023-08-12T12:10:29.207Z,72.28
2023-08-12T12:11:27.596Z,71.59
2023-08-12T12:12:27.580Z,73.75
2023-08-12T12:13:27.800Z,72.24
2023-08-12T12:14:27.611Z,71.45
2023-08-12T12:15:27.573Z,70.96
2023-08-12T12:16:27.546Z,70.01
2023-08-12T12:17:27.567Z,71.82
2023-08-12T12:18:27.521Z,73.89
2023-08-12T12:19:27.484Z,72.28
2023-08-12T12:20:27.524Z,72.47
2023-08-12T12:21:27.464Z,70.21
2023-08-12T12:22:27.507Z,72.97
2023-08-12T12:23:29.310Z,73.27
2023-08-12T12:24:27.426Z,70.40
2023-08-12T12:25:27.443Z,71.59
2023-08-12T12:26:27.397Z,71.59
2023-08-12T12:27:27.405Z,71.19
2023-08-12T12:28:27.389Z,72.22
2023-08-12T12:29:27.404Z,72.25
2023-08-12T12:30:27.350Z,72.28
2023-08-12T12:31:27.357Z,72.38
2023-08-12T12:32:27.410Z,73.27
2023-08-12T12:33:27.334Z,72.84
2023-08-12T12:34:27.363Z,73.60
2023-08-12T12:35:27.285Z,70.90
2023-08-12T12:36:27.277Z,73.23
2023-08-12T12:37:27.267Z,71.22
2023-08-12T12:38:27.247Z,69.58
2023-08-12T12:39:27.252Z,71.09
2023-08-12T12:40:27.223Z,70.01
2023-08-12T12:41:27.229Z,71.95
2023-08-12T12:42:27.200Z,72.28
2023-08-12T12:43:27.207Z,72.28
2023-08-12T12:44:27.170Z,72.38
2023-08-12T12:45:27.171Z,74.16
2023-08-12T12:46:27.323Z,72.34
2023-08-12T12:47:27.148Z,75.01
2023-08-12T12:48:27.136Z,72.45
2023-08-12T12:49:27.156Z,70.37
2023-08-12T12:50:27.115Z,71.03
2023-08-12T12:51:27.110Z,69.52
2023-08-12T12:52:27.093Z,69.85